sensor_id;sensor_type;location;lat;lon;timestamp;temperature;humidity
1205;DHT22;592;48.764;9.174;2023-02-01T00:00:10;3.80;99.90
1205;DHT22;592;48.764;9.174;2023-02-01T00:02:39;3.80;99.90
1205;DHT22;592;48.764;9.174;2023-02-01T00:05:07;3.70;99.90
1205;DHT22;592;48.764;9.174;2023-02-01T00:07:34;3.70;99.90
1205;DHT22;592;48.764;9.174;2023-02-01T00:10:00;3.70;99.90
1205;DHT22;592;48.764;9.174;2023-02-01T00:12:29;3.70;99.90
1205;DHT22;592;48.764;9.174;2023-02-01T00:14:55;3.80;99.90
1205;DHT22;592;48.764;9.174;2023-02-01T00:17:22;3.70;99.90
1205;DHT22;592;48.764;9.174;2023-02-01T00:19:50;3.70;99.90
1205;DHT22;592;48.764;9.174;2023-02-01T00:22:17;3.70;99.90
1205;DHT22;592;48.764;9.174;2023-02-01T00:24:44;3.70;99.90
1205;DHT22;592;48.764;9.174;2023-02-01T00:27:10;3.70;99.90
1205;DHT22;592;48.764;9.174;2023-02-01T00:29:43;3.70;99.90
1205;DHT22;592;48.764;9.174;2023-02-01T00:32:09;3.70;99.90
1205;DHT22;592;48.764;9.174;2023-02-01T00:34:36;3.70;99.90
1205;DHT22;592;48.764;9.174;2023-02-01T00:37:04;3.70;99.90
1205;DHT22;592;48.764;9.174;2023-02-01T00:39:31;3.70;99.90
1205;DHT22;592;48.764;9.174;2023-02-01T00:41:59;3.70;99.90
1205;DHT22;592;48.764;9.174;2023-02-01T00:44:26;3.80;99.90
1205;DHT22;592;48.764;9.174;2023-02-01T00:46:53;3.80;99.90
1205;DHT22;592;48.764;9.174;2023-02-01T00:49:20;3.80;99.90
1205;DHT22;592;48.764;9.174;2023-02-01T00:51:47;3.80;99.90
1205;DHT22;592;48.764;9.174;2023-02-01T00:54:15;3.80;99.90
1205;DHT22;592;48.764;9.174;2023-02-01T00:56:41;3.80;99.90
1205;DHT22;592;48.764;9.174;2023-02-01T00:59:11;3.80;99.90
1205;DHT22;592;48.764;9.174;2023-02-01T01:01:37;3.80;99.90
1205;DHT22;592;48.764;9.174;2023-02-01T01:04:04;3.80;99.90
1205;DHT22;592;48.764;9.174;2023-02-01T01:06:32;3.80;99.90
1205;DHT22;592;48.764;9.174;2023-02-01T01:09:02;3.80;99.90
1205;DHT22;592;48.764;9.174;2023-02-01T01:11:31;3.80;99.90
1205;DHT22;592;48.764;9.174;2023-02-01T01:13:59;3.90;99.90
1205;DHT22;592;48.764;9.174;2023-02-01T01:16:29;3.90;99.90
1205;DHT22;592;48.764;9.174;2023-02-01T01:18:56;3.90;99.90
1205;DHT22;592;48.764;9.174;2023-02-01T01:21:24;3.90;99.90
1205;DHT22;592;48.764;9.174;2023-02-01T01:23:51;3.90;99.90
1205;DHT22;592;48.764;9.174;2023-02-01T01:26:20;3.90;99.90
1205;DHT22;592;48.764;9.174;2023-02-01T01:28:49;3.90;99.90
1205;DHT22;592;48.764;9.174;2023-02-01T01:31:17;3.80;99.90
1205;DHT22;592;48.764;9.174;2023-02-01T01:33:48;3.90;99.90
1205;DHT22;592;48.764;9.174;2023-02-01T01:36:15;3.90;99.90
1205;DHT22;592;48.764;9.174;2023-02-01T01:38:42;3.90;99.90
1205;DHT22;592;48.764;9.174;2023-02-01T01:41:13;3.90;99.90
1205;DHT22;592;48.764;9.174;2023-02-01T01:43:49;3.90;99.90
1205;DHT22;592;48.764;9.174;2023-02-01T01:46:17;3.90;99.90
1205;DHT22;592;48.764;9.174;2023-02-01T01:48:45;4.00;99.90
1205;DHT22;592;48.764;9.174;2023-02-01T01:51:17;3.90;99.90
1205;DHT22;592;48.764;9.174;2023-02-01T01:53:48;4.00;99.90
1205;DHT22;592;48.764;9.174;2023-02-01T01:56:15;4.00;99.90
1205;DHT22;592;48.764;9.174;2023-02-01T01:58:42;4.00;99.90
1205;DHT22;592;48.764;9.174;2023-02-01T02:01:11;4.00;99.90
1205;DHT22;592;48.764;9.174;2023-02-01T02:03:41;4.00;99.90
1205;DHT22;592;48.764;9.174;2023-02-01T02:06:17;4.00;99.90
1205;DHT22;592;48.764;9.174;2023-02-01T02:08:46;4.00;99.90
1205;DHT22;592;48.764;9.174;2023-02-01T02:11:15;4.00;99.90
1205;DHT22;592;48.764;9.174;2023-02-01T02:13:46;4.00;99.90
1205;DHT22;592;48.764;9.174;2023-02-01T02:16:39;4.00;99.90
1205;DHT22;592;48.764;9.174;2023-02-01T02:19:28;4.00;99.90
1205;DHT22;592;48.764;9.174;2023-02-01T02:22:18;4.00;99.90
1205;DHT22;592;48.764;9.174;2023-02-01T02:25:02;4.00;99.90
1205;DHT22;592;48.764;9.174;2023-02-01T02:27:38;4.00;99.90
1205;DHT22;592;48.764;9.174;2023-02-01T02:30:47;4.00;99.90
1205;DHT22;592;48.764;9.174;2023-02-01T02:33:41;4.00;99.90
1205;DHT22;592;48.764;9.174;2023-02-01T02:36:12;4.00;99.90
1205;DHT22;592;48.764;9.174;2023-02-01T02:38:47;4.00;99.90
1205;DHT22;592;48.764;9.174;2023-02-01T02:41:19;4.00;99.90
1205;DHT22;592;48.764;9.174;2023-02-01T02:44:11;4.10;99.90
1205;DHT22;592;48.764;9.174;2023-02-01T02:47:03;4.10;99.90
1205;DHT22;592;48.764;9.174;2023-02-01T02:49:56;4.00;99.90
1205;DHT22;592;48.764;9.174;2023-02-01T02:52:45;4.10;99.90
1205;DHT22;592;48.764;9.174;2023-02-01T02:55:37;4.10;99.90
1205;DHT22;592;48.764;9.174;2023-02-01T02:58:07;4.10;99.90
1205;DHT22;592;48.764;9.174;2023-02-01T03:00:53;4.10;99.90
1205;DHT22;592;48.764;9.174;2023-02-01T03:03:38;4.10;99.90
1205;DHT22;592;48.764;9.174;2023-02-01T03:06:25;4.10;99.90
1205;DHT22;592;48.764;9.174;2023-02-01T03:08:54;4.10;99.90
1205;DHT22;592;48.764;9.174;2023-02-01T03:11:22;4.10;99.90
1205;DHT22;592;48.764;9.174;2023-02-01T03:14:11;4.10;99.90
1205;DHT22;592;48.764;9.174;2023-02-01T03:16:42;4.10;99.90
1205;DHT22;592;48.764;9.174;2023-02-01T03:19:15;4.00;99.90
1205;DHT22;592;48.764;9.174;2023-02-01T03:21:48;4.00;99.90
1205;DHT22;592;48.764;9.174;2023-02-01T03:24:19;4.00;99.90
1205;DHT22;592;48.764;9.174;2023-02-01T03:26:51;4.10;99.90
1205;DHT22;592;48.764;9.174;2023-02-01T03:29:26;4.10;99.90
1205;DHT22;592;48.764;9.174;2023-02-01T03:31:53;4.10;99.90
1205;DHT22;592;48.764;9.174;2023-02-01T03:34:21;4.10;99.90
1205;DHT22;592;48.764;9.174;2023-02-01T03:36:51;4.00;99.90
1205;DHT22;592;48.764;9.174;2023-02-01T03:39:28;4.00;99.90
1205;DHT22;592;48.764;9.174;2023-02-01T03:41:58;4.00;99.90
1205;DHT22;592;48.764;9.174;2023-02-01T03:44:29;4.00;99.90
1205;DHT22;592;48.764;9.174;2023-02-01T03:47:00;4.00;99.90
1205;DHT22;592;48.764;9.174;2023-02-01T03:49:43;4.00;99.90
1205;DHT22;592;48.764;9.174;2023-02-01T03:52:14;4.00;99.90
1205;DHT22;592;48.764;9.174;2023-02-01T03:54:42;4.00;99.90
1205;DHT22;592;48.764;9.174;2023-02-01T03:57:12;4.00;99.90
1205;DHT22;592;48.764;9.174;2023-02-01T03:59:40;4.00;99.90
1205;DHT22;592;48.764;9.174;2023-02-01T04:02:07;4.00;99.90
1205;DHT22;592;48.764;9.174;2023-02-01T04:04:34;4.00;99.90
1205;DHT22;592;48.764;9.174;2023-02-01T04:07:01;4.10;99.90
1205;DHT22;592;48.764;9.174;2023-02-01T04:09:29;4.10;99.90
1205;DHT22;592;48.764;9.174;2023-02-01T04:11:56;4.10;99.90
1205;DHT22;592;48.764;9.174;2023-02-01T04:14:22;4.10;99.90
1205;DHT22;592;48.764;9.174;2023-02-01T04:16:49;4.10;99.90
1205;DHT22;592;48.764;9.174;2023-02-01T04:19:16;4.10;99.90
1205;DHT22;592;48.764;9.174;2023-02-01T04:21:42;4.10;99.90
1205;DHT22;592;48.764;9.174;2023-02-01T04:24:09;4.10;99.90
1205;DHT22;592;48.764;9.174;2023-02-01T04:26:37;4.10;99.90
1205;DHT22;592;48.764;9.174;2023-02-01T04:29:04;4.20;99.90
1205;DHT22;592;48.764;9.174;2023-02-01T04:31:31;4.10;99.90
1205;DHT22;592;48.764;9.174;2023-02-01T04:33:57;4.20;99.90
1205;DHT22;592;48.764;9.174;2023-02-01T04:36:24;4.20;99.90
1205;DHT22;592;48.764;9.174;2023-02-01T04:38:51;4.20;99.90
1205;DHT22;592;48.764;9.174;2023-02-01T04:41:18;4.20;99.90
1205;DHT22;592;48.764;9.174;2023-02-01T04:43:46;4.20;99.90
1205;DHT22;592;48.764;9.174;2023-02-01T04:46:13;4.20;99.90
1205;DHT22;592;48.764;9.174;2023-02-01T04:48:40;4.20;99.90
1205;DHT22;592;48.764;9.174;2023-02-01T04:51:07;4.20;99.90
1205;DHT22;592;48.764;9.174;2023-02-01T04:53:33;4.20;99.90
1205;DHT22;592;48.764;9.174;2023-02-01T04:56:00;4.20;99.90
1205;DHT22;592;48.764;9.174;2023-02-01T04:58:27;4.30;99.90
1205;DHT22;592;48.764;9.174;2023-02-01T05:00:55;4.30;99.90
1205;DHT22;592;48.764;9.174;2023-02-01T05:03:22;4.30;99.90
1205;DHT22;592;48.764;9.174;2023-02-01T05:05:48;4.30;99.90
1205;DHT22;592;48.764;9.174;2023-02-01T05:08:15;4.30;99.90
1205;DHT22;592;48.764;9.174;2023-02-01T05:10:42;4.30;99.90
1205;DHT22;592;48.764;9.174;2023-02-01T05:13:09;4.30;99.90
1205;DHT22;592;48.764;9.174;2023-02-01T05:15:55;4.30;99.90
1205;DHT22;592;48.764;9.174;2023-02-01T05:18:22;4.30;99.90
1205;DHT22;592;48.764;9.174;2023-02-01T05:20:48;4.40;99.90
1205;DHT22;592;48.764;9.174;2023-02-01T05:23:15;4.30;99.90
1205;DHT22;592;48.764;9.174;2023-02-01T05:25:42;4.40;99.90
1205;DHT22;592;48.764;9.174;2023-02-01T05:28:08;4.40;99.90
1205;DHT22;592;48.764;9.174;2023-02-01T05:30:35;4.40;99.90
1205;DHT22;592;48.764;9.174;2023-02-01T05:33:03;4.40;99.90
1205;DHT22;592;48.764;9.174;2023-02-01T05:35:30;4.40;99.90
1205;DHT22;592;48.764;9.174;2023-02-01T05:37:57;4.40;99.90
1205;DHT22;592;48.764;9.174;2023-02-01T05:40:23;4.40;99.90
1205;DHT22;592;48.764;9.174;2023-02-01T05:42:50;4.40;99.90
1205;DHT22;592;48.764;9.174;2023-02-01T05:45:17;4.40;99.90
1205;DHT22;592;48.764;9.174;2023-02-01T05:47:43;4.40;99.90
1205;DHT22;592;48.764;9.174;2023-02-01T05:50:11;4.40;99.90
1205;DHT22;592;48.764;9.174;2023-02-01T05:52:38;4.40;99.90
1205;DHT22;592;48.764;9.174;2023-02-01T05:55:05;4.40;99.90
1205;DHT22;592;48.764;9.174;2023-02-01T05:57:32;4.40;99.90
1205;DHT22;592;48.764;9.174;2023-02-01T05:59:59;4.40;99.90
1205;DHT22;592;48.764;9.174;2023-02-01T06:02:26;4.30;99.90
1205;DHT22;592;48.764;9.174;2023-02-01T06:04:52;4.30;99.90
1205;DHT22;592;48.764;9.174;2023-02-01T06:07:20;4.20;99.90
1205;DHT22;592;48.764;9.174;2023-02-01T06:09:47;4.20;99.90
1205;DHT22;592;48.764;9.174;2023-02-01T06:12:14;4.20;99.90
1205;DHT22;592;48.764;9.174;2023-02-01T06:14:41;4.10;99.90
1205;DHT22;592;48.764;9.174;2023-02-01T06:17:08;4.10;99.90
1205;DHT22;592;48.764;9.174;2023-02-01T06:19:35;4.10;99.90
1205;DHT22;592;48.764;9.174;2023-02-01T06:22:02;4.10;99.90
1205;DHT22;592;48.764;9.174;2023-02-01T06:24:32;4.10;99.90
1205;DHT22;592;48.764;9.174;2023-02-01T06:26:59;4.10;99.90
1205;DHT22;592;48.764;9.174;2023-02-01T06:29:26;4.10;99.90
1205;DHT22;592;48.764;9.174;2023-02-01T06:31:52;4.10;99.90
1205;DHT22;592;48.764;9.174;2023-02-01T06:34:19;4.10;99.90
1205;DHT22;592;48.764;9.174;2023-02-01T06:36:48;4.10;99.90
1205;DHT22;592;48.764;9.174;2023-02-01T06:39:15;4.10;99.90
1205;DHT22;592;48.764;9.174;2023-02-01T06:41:46;4.10;99.90
1205;DHT22;592;48.764;9.174;2023-02-01T06:44:13;4.10;99.90
1205;DHT22;592;48.764;9.174;2023-02-01T06:46:40;4.20;99.90
1205;DHT22;592;48.764;9.174;2023-02-01T06:49:06;4.10;99.90
1205;DHT22;592;48.764;9.174;2023-02-01T06:51:33;4.10;99.90
1205;DHT22;592;48.764;9.174;2023-02-01T06:54:00;4.20;99.90
1205;DHT22;592;48.764;9.174;2023-02-01T06:56:27;4.30;99.90
1205;DHT22;592;48.764;9.174;2023-02-01T06:58:55;4.30;99.90
1205;DHT22;592;48.764;9.174;2023-02-01T07:01:22;4.30;99.90
1205;DHT22;592;48.764;9.174;2023-02-01T07:03:50;4.30;99.90
1205;DHT22;592;48.764;9.174;2023-02-01T07:06:17;4.40;99.90
1205;DHT22;592;48.764;9.174;2023-02-01T07:08:44;4.40;99.90
1205;DHT22;592;48.764;9.174;2023-02-01T07:11:12;4.40;99.90
1205;DHT22;592;48.764;9.174;2023-02-01T07:13:39;4.40;99.90
1205;DHT22;592;48.764;9.174;2023-02-01T07:16:11;4.50;99.90
1205;DHT22;592;48.764;9.174;2023-02-01T07:18:38;4.50;99.90
1205;DHT22;592;48.764;9.174;2023-02-01T07:21:05;4.50;99.90
1205;DHT22;592;48.764;9.174;2023-02-01T07:23:32;4.50;99.90
1205;DHT22;592;48.764;9.174;2023-02-01T07:26:00;4.50;99.90
1205;DHT22;592;48.764;9.174;2023-02-01T07:28:28;4.50;99.90
1205;DHT22;592;48.764;9.174;2023-02-01T07:31:03;4.50;99.90
1205;DHT22;592;48.764;9.174;2023-02-01T07:33:45;4.50;99.90
1205;DHT22;592;48.764;9.174;2023-02-01T07:36:15;4.60;99.90
1205;DHT22;592;48.764;9.174;2023-02-01T07:38:42;4.60;99.90
1205;DHT22;592;48.764;9.174;2023-02-01T07:41:09;4.50;99.90
1205;DHT22;592;48.764;9.174;2023-02-01T07:43:36;4.50;99.90
1205;DHT22;592;48.764;9.174;2023-02-01T07:46:04;4.50;99.90
1205;DHT22;592;48.764;9.174;2023-02-01T07:48:32;4.60;99.90
1205;DHT22;592;48.764;9.174;2023-02-01T07:51:02;4.60;99.90
1205;DHT22;592;48.764;9.174;2023-02-01T07:53:30;4.60;99.90
1205;DHT22;592;48.764;9.174;2023-02-01T07:55:57;4.70;99.90
1205;DHT22;592;48.764;9.174;2023-02-01T07:58:25;4.70;99.90
1205;DHT22;592;48.764;9.174;2023-02-01T08:00:52;4.70;99.90
1205;DHT22;592;48.764;9.174;2023-02-01T08:03:37;4.70;99.90
1205;DHT22;592;48.764;9.174;2023-02-01T08:06:06;4.80;99.90
1205;DHT22;592;48.764;9.174;2023-02-01T08:08:33;4.80;99.90
1205;DHT22;592;48.764;9.174;2023-02-01T08:11:00;4.80;99.90
1205;DHT22;592;48.764;9.174;2023-02-01T08:13:27;4.80;99.90
1205;DHT22;592;48.764;9.174;2023-02-01T08:15:57;4.80;99.90
1205;DHT22;592;48.764;9.174;2023-02-01T08:18:24;4.90;99.90
1205;DHT22;592;48.764;9.174;2023-02-01T08:20:51;4.90;99.90
1205;DHT22;592;48.764;9.174;2023-02-01T08:23:19;4.90;99.90
1205;DHT22;592;48.764;9.174;2023-02-01T08:25:46;4.90;99.90
1205;DHT22;592;48.764;9.174;2023-02-01T08:28:13;4.90;99.90
1205;DHT22;592;48.764;9.174;2023-02-01T08:30:40;4.90;99.90
1205;DHT22;592;48.764;9.174;2023-02-01T08:33:08;4.90;99.90
1205;DHT22;592;48.764;9.174;2023-02-01T08:35:36;5.00;99.90
1205;DHT22;592;48.764;9.174;2023-02-01T08:38:03;5.10;99.90
1205;DHT22;592;48.764;9.174;2023-02-01T08:40:31;5.20;99.90
1205;DHT22;592;48.764;9.174;2023-02-01T08:42:58;5.10;99.90
1205;DHT22;592;48.764;9.174;2023-02-01T08:45:28;5.10;99.90
1205;DHT22;592;48.764;9.174;2023-02-01T08:47:55;5.20;99.90
1205;DHT22;592;48.764;9.174;2023-02-01T08:50:23;5.30;99.90
1205;DHT22;592;48.764;9.174;2023-02-01T08:52:52;5.30;99.90
1205;DHT22;592;48.764;9.174;2023-02-01T08:55:19;5.40;99.90
1205;DHT22;592;48.764;9.174;2023-02-01T08:57:47;5.30;99.90
1205;DHT22;592;48.764;9.174;2023-02-01T09:00:16;5.30;99.90
1205;DHT22;592;48.764;9.174;2023-02-01T09:02:43;5.30;99.90
1205;DHT22;592;48.764;9.174;2023-02-01T09:05:11;5.30;99.90
1205;DHT22;592;48.764;9.174;2023-02-01T09:07:39;5.30;99.90
1205;DHT22;592;48.764;9.174;2023-02-01T09:10:06;5.40;99.90
1205;DHT22;592;48.764;9.174;2023-02-01T09:12:34;5.40;99.90
1205;DHT22;592;48.764;9.174;2023-02-01T09:15:03;5.40;99.90
1205;DHT22;592;48.764;9.174;2023-02-01T09:17:32;5.40;99.90
1205;DHT22;592;48.764;9.174;2023-02-01T09:19:59;5.50;99.90
1205;DHT22;592;48.764;9.174;2023-02-01T09:22:26;5.40;99.90
1205;DHT22;592;48.764;9.174;2023-02-01T09:24:52;5.40;99.90
1205;DHT22;592;48.764;9.174;2023-02-01T09:27:19;5.40;99.90
1205;DHT22;592;48.764;9.174;2023-02-01T09:29:46;5.40;99.90
1205;DHT22;592;48.764;9.174;2023-02-01T09:32:19;5.50;99.90
1205;DHT22;592;48.764;9.174;2023-02-01T09:34:45;5.50;99.90
1205;DHT22;592;48.764;9.174;2023-02-01T09:37:12;5.60;99.90
1205;DHT22;592;48.764;9.174;2023-02-01T09:39:39;5.60;99.90
1205;DHT22;592;48.764;9.174;2023-02-01T09:42:16;5.70;99.90
1205;DHT22;592;48.764;9.174;2023-02-01T09:47:45;5.80;99.90
1205;DHT22;592;48.764;9.174;2023-02-01T09:50:15;5.90;99.90
1205;DHT22;592;48.764;9.174;2023-02-01T09:52:50;5.90;99.90
1205;DHT22;592;48.764;9.174;2023-02-01T09:55:21;6.00;99.90
1205;DHT22;592;48.764;9.174;2023-02-01T09:57:54;6.00;99.90
1205;DHT22;592;48.764;9.174;2023-02-01T10:00:25;6.00;99.90
1205;DHT22;592;48.764;9.174;2023-02-01T10:02:55;6.00;99.90
1205;DHT22;592;48.764;9.174;2023-02-01T10:05:35;6.10;99.90
1205;DHT22;592;48.764;9.174;2023-02-01T10:08:12;6.10;99.90
1205;DHT22;592;48.764;9.174;2023-02-01T10:10:43;6.10;99.90
1205;DHT22;592;48.764;9.174;2023-02-01T10:13:28;6.00;99.90
1205;DHT22;592;48.764;9.174;2023-02-01T10:16:16;6.00;99.90
1205;DHT22;592;48.764;9.174;2023-02-01T10:18:59;6.00;99.90
1205;DHT22;592;48.764;9.174;2023-02-01T10:21:46;6.00;99.90
1205;DHT22;592;48.764;9.174;2023-02-01T10:24:24;6.00;99.90
1205;DHT22;592;48.764;9.174;2023-02-01T10:26:59;6.10;99.90
1205;DHT22;592;48.764;9.174;2023-02-01T10:29:33;6.10;99.90
1205;DHT22;592;48.764;9.174;2023-02-01T10:32:01;6.20;99.90
1205;DHT22;592;48.764;9.174;2023-02-01T10:34:31;6.30;99.90
1205;DHT22;592;48.764;9.174;2023-02-01T10:37:01;6.30;99.90
1205;DHT22;592;48.764;9.174;2023-02-01T10:39:27;6.30;99.90
1205;DHT22;592;48.764;9.174;2023-02-01T10:41:55;6.30;99.90
1205;DHT22;592;48.764;9.174;2023-02-01T10:44:25;6.30;99.90
1205;DHT22;592;48.764;9.174;2023-02-01T10:46:52;6.20;99.90
1205;DHT22;592;48.764;9.174;2023-02-01T10:49:22;6.30;99.90
1205;DHT22;592;48.764;9.174;2023-02-01T10:51:55;6.40;99.90
1205;DHT22;592;48.764;9.174;2023-02-01T10:54:33;6.40;99.90
1205;DHT22;592;48.764;9.174;2023-02-01T10:57:00;6.30;99.90
1205;DHT22;592;48.764;9.174;2023-02-01T10:59:29;6.30;99.90
1205;DHT22;592;48.764;9.174;2023-02-01T11:01:59;6.30;99.90
1205;DHT22;592;48.764;9.174;2023-02-01T11:04:26;6.30;99.90
1205;DHT22;592;48.764;9.174;2023-02-01T11:07:05;6.30;99.90
1205;DHT22;592;48.764;9.174;2023-02-01T11:09:35;6.40;99.90
1205;DHT22;592;48.764;9.174;2023-02-01T11:12:10;6.30;99.90
1205;DHT22;592;48.764;9.174;2023-02-01T11:14:47;6.30;99.90
1205;DHT22;592;48.764;9.174;2023-02-01T11:17:24;6.30;99.90
1205;DHT22;592;48.764;9.174;2023-02-01T11:19:58;6.30;99.90
1205;DHT22;592;48.764;9.174;2023-02-01T11:22:27;6.40;99.90
1205;DHT22;592;48.764;9.174;2023-02-01T11:24:55;6.30;99.90
1205;DHT22;592;48.764;9.174;2023-02-01T11:27:23;6.30;99.90
1205;DHT22;592;48.764;9.174;2023-02-01T11:29:53;6.20;99.90
1205;DHT22;592;48.764;9.174;2023-02-01T11:32:21;6.30;99.90
1205;DHT22;592;48.764;9.174;2023-02-01T11:34:52;6.30;99.90
1205;DHT22;592;48.764;9.174;2023-02-01T11:37:23;6.30;99.90
1205;DHT22;592;48.764;9.174;2023-02-01T11:39:56;6.50;99.90
1205;DHT22;592;48.764;9.174;2023-02-01T11:42:23;6.40;99.90
1205;DHT22;592;48.764;9.174;2023-02-01T11:44:51;6.50;99.90
1205;DHT22;592;48.764;9.174;2023-02-01T11:47:26;6.40;99.90
1205;DHT22;592;48.764;9.174;2023-02-01T11:49:54;6.50;99.90
1205;DHT22;592;48.764;9.174;2023-02-01T11:52:35;6.40;99.90
1205;DHT22;592;48.764;9.174;2023-02-01T11:58:19;6.50;99.90
1205;DHT22;592;48.764;9.174;2023-02-01T12:00:57;6.50;99.90
1205;DHT22;592;48.764;9.174;2023-02-01T12:03:43;6.60;99.90
1205;DHT22;592;48.764;9.174;2023-02-01T12:06:19;6.50;99.90
1205;DHT22;592;48.764;9.174;2023-02-01T12:09:04;6.50;99.90
1205;DHT22;592;48.764;9.174;2023-02-01T12:11:40;6.50;99.90
1205;DHT22;592;48.764;9.174;2023-02-01T12:14:19;6.40;99.90
1205;DHT22;592;48.764;9.174;2023-02-01T12:16:56;6.30;99.90
1205;DHT22;592;48.764;9.174;2023-02-01T12:19:37;6.30;99.90
1205;DHT22;592;48.764;9.174;2023-02-01T12:22:22;6.30;99.90
1205;DHT22;592;48.764;9.174;2023-02-01T12:25:11;6.40;99.90
1205;DHT22;592;48.764;9.174;2023-02-01T12:28:02;6.30;99.90
1205;DHT22;592;48.764;9.174;2023-02-01T12:30:46;6.30;99.90
1205;DHT22;592;48.764;9.174;2023-02-01T12:33:21;6.30;99.90
1205;DHT22;592;48.764;9.174;2023-02-01T12:36:00;6.30;99.90
1205;DHT22;592;48.764;9.174;2023-02-01T12:41:25;6.20;99.90
1205;DHT22;592;48.764;9.174;2023-02-01T12:43:57;6.10;99.90
1205;DHT22;592;48.764;9.174;2023-02-01T12:46:29;6.10;99.90
1205;DHT22;592;48.764;9.174;2023-02-01T12:49:02;6.00;99.90
1205;DHT22;592;48.764;9.174;2023-02-01T12:51:34;6.10;99.90
1205;DHT22;592;48.764;9.174;2023-02-01T12:54:06;6.10;99.90
1205;DHT22;592;48.764;9.174;2023-02-01T12:56:40;6.10;99.90
1205;DHT22;592;48.764;9.174;2023-02-01T12:59:16;6.00;99.90
1205;DHT22;592;48.764;9.174;2023-02-01T13:01:49;6.00;99.90
1205;DHT22;592;48.764;9.174;2023-02-01T13:04:32;6.10;99.90
1205;DHT22;592;48.764;9.174;2023-02-01T13:07:07;6.10;99.90
1205;DHT22;592;48.764;9.174;2023-02-01T13:09:40;6.00;99.90
1205;DHT22;592;48.764;9.174;2023-02-01T13:12:14;6.00;99.90
1205;DHT22;592;48.764;9.174;2023-02-01T13:14:45;6.00;99.90
1205;DHT22;592;48.764;9.174;2023-02-01T13:17:15;6.00;99.90
1205;DHT22;592;48.764;9.174;2023-02-01T13:19:48;6.00;99.90
1205;DHT22;592;48.764;9.174;2023-02-01T13:22:20;6.10;99.90
1205;DHT22;592;48.764;9.174;2023-02-01T13:24:50;6.00;99.90
1205;DHT22;592;48.764;9.174;2023-02-01T13:27:18;6.00;99.90
1205;DHT22;592;48.764;9.174;2023-02-01T13:29:52;6.00;99.90
1205;DHT22;592;48.764;9.174;2023-02-01T13:32:44;6.00;99.90
1205;DHT22;592;48.764;9.174;2023-02-01T13:35:35;6.00;99.90
1205;DHT22;592;48.764;9.174;2023-02-01T13:41:27;6.10;99.90
1205;DHT22;592;48.764;9.174;2023-02-01T13:43:58;6.20;99.90
1205;DHT22;592;48.764;9.174;2023-02-01T13:46:26;6.10;99.90
1205;DHT22;592;48.764;9.174;2023-02-01T13:48:56;6.10;99.90
1205;DHT22;592;48.764;9.174;2023-02-01T13:51:40;6.00;99.90
1205;DHT22;592;48.764;9.174;2023-02-01T13:54:18;6.00;99.90
1205;DHT22;592;48.764;9.174;2023-02-01T13:56:50;6.00;99.90
1205;DHT22;592;48.764;9.174;2023-02-01T13:59:36;6.00;99.90
1205;DHT22;592;48.764;9.174;2023-02-01T14:08:41;6.00;99.90
1205;DHT22;592;48.764;9.174;2023-02-01T14:11:33;6.00;99.90
1205;DHT22;592;48.764;9.174;2023-02-01T14:17:39;6.00;99.90
1205;DHT22;592;48.764;9.174;2023-02-01T14:23:29;6.10;99.90
1205;DHT22;592;48.764;9.174;2023-02-01T14:26:10;6.00;99.90
1205;DHT22;592;48.764;9.174;2023-02-01T14:28:48;6.00;99.90
1205;DHT22;592;48.764;9.174;2023-02-01T14:31:44;6.10;99.90
1205;DHT22;592;48.764;9.174;2023-02-01T14:34:16;6.00;99.90
1205;DHT22;592;48.764;9.174;2023-02-01T14:36:49;6.00;99.90
1205;DHT22;592;48.764;9.174;2023-02-01T14:39:35;6.00;99.90
1205;DHT22;592;48.764;9.174;2023-02-01T14:42:16;6.00;99.90
1205;DHT22;592;48.764;9.174;2023-02-01T14:44:47;6.00;99.90
1205;DHT22;592;48.764;9.174;2023-02-01T14:47:30;6.00;99.90
1205;DHT22;592;48.764;9.174;2023-02-01T14:53:03;6.00;99.90
1205;DHT22;592;48.764;9.174;2023-02-01T14:55:34;6.00;99.90
1205;DHT22;592;48.764;9.174;2023-02-01T14:58:05;5.90;99.90
1205;DHT22;592;48.764;9.174;2023-02-01T15:00:33;5.90;99.90
1205;DHT22;592;48.764;9.174;2023-02-01T15:03:22;5.90;99.90
1205;DHT22;592;48.764;9.174;2023-02-01T15:05:55;5.90;99.90
1205;DHT22;592;48.764;9.174;2023-02-01T15:08:25;5.90;99.90
1205;DHT22;592;48.764;9.174;2023-02-01T15:10:54;5.90;99.90
1205;DHT22;592;48.764;9.174;2023-02-01T15:13:25;5.90;99.90
1205;DHT22;592;48.764;9.174;2023-02-01T15:16:03;6.00;99.90
1205;DHT22;592;48.764;9.174;2023-02-01T15:18:30;5.90;99.90
1205;DHT22;592;48.764;9.174;2023-02-01T15:20:59;5.90;99.90
1205;DHT22;592;48.764;9.174;2023-02-01T15:23:26;5.90;99.90
1205;DHT22;592;48.764;9.174;2023-02-01T15:25:53;5.90;99.90
1205;DHT22;592;48.764;9.174;2023-02-01T15:28:22;5.90;99.90
1205;DHT22;592;48.764;9.174;2023-02-01T15:30:55;5.90;99.90
1205;DHT22;592;48.764;9.174;2023-02-01T15:33:23;5.90;99.90
1205;DHT22;592;48.764;9.174;2023-02-01T15:35:51;5.80;99.90
1205;DHT22;592;48.764;9.174;2023-02-01T15:38:36;5.90;99.90
1205;DHT22;592;48.764;9.174;2023-02-01T15:41:09;5.90;99.90
1205;DHT22;592;48.764;9.174;2023-02-01T15:43:40;5.80;99.90
1205;DHT22;592;48.764;9.174;2023-02-01T15:46:11;5.80;99.90
1205;DHT22;592;48.764;9.174;2023-02-01T15:48:42;5.80;99.90
1205;DHT22;592;48.764;9.174;2023-02-01T15:51:17;5.80;99.90
1205;DHT22;592;48.764;9.174;2023-02-01T15:53:48;5.80;99.90
1205;DHT22;592;48.764;9.174;2023-02-01T15:56:15;5.80;99.90
1205;DHT22;592;48.764;9.174;2023-02-01T15:58:47;5.80;99.90
1205;DHT22;592;48.764;9.174;2023-02-01T16:01:15;5.80;99.90
1205;DHT22;592;48.764;9.174;2023-02-01T16:03:43;5.80;99.90
1205;DHT22;592;48.764;9.174;2023-02-01T16:06:11;5.80;99.90
1205;DHT22;592;48.764;9.174;2023-02-01T16:08:50;5.80;99.90
1205;DHT22;592;48.764;9.174;2023-02-01T16:11:24;5.80;99.90
1205;DHT22;592;48.764;9.174;2023-02-01T16:13:54;5.80;99.90
1205;DHT22;592;48.764;9.174;2023-02-01T16:16:21;5.80;99.90
1205;DHT22;592;48.764;9.174;2023-02-01T16:18:48;5.80;99.90
1205;DHT22;592;48.764;9.174;2023-02-01T16:21:15;5.90;99.90
1205;DHT22;592;48.764;9.174;2023-02-01T16:23:41;5.80;99.90
1205;DHT22;592;48.764;9.174;2023-02-01T16:26:08;5.90;99.90
1205;DHT22;592;48.764;9.174;2023-02-01T16:28:35;5.90;99.90
1205;DHT22;592;48.764;9.174;2023-02-01T16:31:03;5.80;99.90
1205;DHT22;592;48.764;9.174;2023-02-01T16:33:30;5.90;99.90
1205;DHT22;592;48.764;9.174;2023-02-01T16:35:57;5.90;99.90
1205;DHT22;592;48.764;9.174;2023-02-01T16:38:28;5.90;99.90
1205;DHT22;592;48.764;9.174;2023-02-01T16:40:54;5.80;99.90
1205;DHT22;592;48.764;9.174;2023-02-01T16:43:24;5.90;99.90
1205;DHT22;592;48.764;9.174;2023-02-01T16:45:53;5.90;99.90
1205;DHT22;592;48.764;9.174;2023-02-01T16:48:24;5.90;99.90
1205;DHT22;592;48.764;9.174;2023-02-01T16:50:53;5.90;99.90
1205;DHT22;592;48.764;9.174;2023-02-01T16:53:22;5.80;99.90
1205;DHT22;592;48.764;9.174;2023-02-01T16:55:49;5.90;99.90
1205;DHT22;592;48.764;9.174;2023-02-01T16:58:18;5.80;99.90
1205;DHT22;592;48.764;9.174;2023-02-01T17:00:46;5.80;99.90
1205;DHT22;592;48.764;9.174;2023-02-01T17:03:13;5.80;99.90
1205;DHT22;592;48.764;9.174;2023-02-01T17:05:43;5.80;99.90
1205;DHT22;592;48.764;9.174;2023-02-01T17:08:14;5.70;99.90
1205;DHT22;592;48.764;9.174;2023-02-01T17:10:42;5.70;99.90
1205;DHT22;592;48.764;9.174;2023-02-01T17:13:13;5.70;99.90
1205;DHT22;592;48.764;9.174;2023-02-01T17:15:40;5.70;99.90
1205;DHT22;592;48.764;9.174;2023-02-01T17:18:08;5.60;99.90
1205;DHT22;592;48.764;9.174;2023-02-01T17:20:40;5.60;99.90
1205;DHT22;592;48.764;9.174;2023-02-01T17:23:09;5.60;99.90
1205;DHT22;592;48.764;9.174;2023-02-01T17:25:36;5.60;99.90
1205;DHT22;592;48.764;9.174;2023-02-01T17:28:03;5.60;99.90